• Join FlightAware (Why Join?)
  • Login
  • US Flag 
04:38PM EDT


 

Airport Tracker/Info


-or-


 

Live Flight TrackerFlight Track Log ✈ LIA565 ✈ 10-May-2013 ✈ TDPD / DOM - TBPB / BGI

Flight Track Log - Related Links

Times and Time Zones

All times are in EDT time to prevent confusion due to time zone crossing. See the LIA565 flight status page for this flight to view local times or setup timezone preferences in your user account.

Time Position Orientation Groundspeed Altitude Reporting Facility
EDT Latitude Longitude Course Direction KTS MPH feet Rate Location/Type
05:11PM 14.8198 -60.7631 144° Southeast  Level Estimated
05:12PM 14.7470 -60.7096 145° Southeast  Level Estimated
05:13PM 14.6742 -60.6561 145° Southeast  Level Estimated
05:14PM 14.6014 -60.6027 145° Southeast  Level Estimated
05:15PM 14.5285 -60.5493 145° Southeast  Level Estimated
05:16PM 14.4557 -60.4960 145° Southeast  Level Estimated
05:17PM 14.3828 -60.4427 145° Southeast  Level Estimated
05:18PM 14.3100 -60.3894 145° Southeast  Level Estimated
05:19PM 14.2371 -60.3361 145° Southeast  Level Estimated
05:20PM 14.1642 -60.2829 145° Southeast  Level Estimated
05:21PM 14.0913 -60.2297 145° Southeast  Level Estimated
05:22PM 14.0184 -60.1766 145° Southeast  Level Estimated
05:23PM 13.9454 -60.1235 145° Southeast  Level Estimated
05:24PM 13.8725 -60.0704 145° Southeast  Level Estimated
05:25PM 13.7996 -60.0174 145° Southeast  Level Estimated
05:26PM 13.7266 -59.9644 145° Southeast  Level Estimated
05:27PM 13.6536 -59.9114 145° Southeast  Level Estimated
05:28PM 13.5807 -59.8584 145° Southeast  Level Estimated
05:29PM 13.5077 -59.8055 145° Southeast  Level Estimated
05:30PM 13.4347 -59.7527 145° Southeast  Level Estimated
05:31PM 13.3616 -59.6998 145° Southeast  Level Estimated
05:32PM 13.2886 -59.6470 145° Southeast  Level Estimated
05:33PM 13.2156 -59.5942 145° Southeast  Level Estimated
05:34PM 13.1425 -59.5415 145° Southeast  Level Estimated
05:35PM 13.0746 -59.4925 145° Southeast  Level Estimated
05:36PM 13.0746 -59.4925 52° Northeast  Level Estimated
05:37PM 13.0746 -59.4925 52° Northeast  Level Estimated
05:38PM 13.0746 -59.4925 52° Northeast  Level Estimated
05:39PM 13.0746 -59.4925 52° Northeast  Level Estimated
05:40PM 13.0746 -59.4925 52° Northeast  Level Estimated
05:41PM 13.0746 -59.4925 52° Northeast  Level Estimated
05:42PM 13.0746 -59.4925 52° Northeast  Level Estimated
05:43PM 13.0746 -59.4925 52° Northeast  Level Estimated
05:44PM 13.0746 -59.4925 52° Northeast  Level Estimated
05:45PM 13.0746 -59.4925 52° Northeast  Level Estimated
05:46PM 13.0746 -59.4925 52° Northeast  Level Estimated
05:47PM 13.0746 -59.4925 52° Northeast  Level Estimated
05:48PM 13.0746 -59.4925 52° Northeast  Level Estimated
05:49PM 13.0746 -59.4925 52° Northeast  Level Estimated
05:50PM 13.0746 -59.4925 52° Northeast  Level Estimated
05:51PM 13.0746 -59.4925 52° Northeast  Level Estimated